Time;durP1;ratioP1;P1;durP2;ratioP2;P2;SDS_P1;SDS_P2;PMS_P1;PMS_P2;Temp;Humidity;BMP_temperature;BMP_pressure;BME280_temperature;BME280_humidity;BME280_pressure;Samples;Min_cycle;Max_cycle;Signal;HPM_P1;HPM_P2
2022/03/05 00:00:06;;;;;;;1.00;1.00;;;;;;;2.83;58.71;102017.03;672179;29;22320;-71
2022/03/05 00:00:33;;;;;;;1.08;1.08;;;;;;;2.83;58.82;102025.03;668873;29;138063;-71
2022/03/05 00:00:54;;;;;;;1.10;1.10;;;;;;;2.83;58.67;102018.84;671218;29;46336;-71
2022/03/05 00:01:16;;;;;;;1.02;1.02;;;;;;;2.83;58.84;102022.38;671518;29;22410;-71
2022/03/05 00:01:38;;;;;;;1.00;1.00;;;;;;;2.83;58.78;102017.03;671012;29;44200;-71
2022/03/05 00:01:59;;;;;;;1.10;1.10;;;;;;;2.81;58.67;102018.94;671539;29;45255;-71
2022/03/05 00:02:20;;;;;;;0.98;0.98;;;;;;;2.84;58.69;102026.75;672548;29;20150;-72
2022/03/05 00:02:41;;;;;;;0.80;0.80;;;;;;;2.84;58.68;102023.25;673153;29;21537;-71
2022/03/05 00:03:03;;;;;;;0.95;0.95;;;;;;;2.85;58.74;102017.81;670541;29;46360;-71
2022/03/05 00:03:25;;;;;;;1.20;1.20;;;;;;;2.85;58.66;102020.47;672612;29;21279;-71
2022/03/05 00:03:46;;;;;;;1.15;1.15;;;;;;;2.86;58.61;102024.84;671587;29;46089;-71
2022/03/05 00:04:07;;;;;;;1.00;1.00;;;;;;;2.88;58.63;102016.75;672417;29;22421;-71
2022/03/05 00:04:28;;;;;;;1.00;1.00;;;;;;;2.88;58.55;102017.63;672932;29;21264;-72
2022/03/05 00:04:51;;;;;;;1.10;1.10;;;;;;;2.88;58.61;102020.28;674243;29;22424;-72
2022/03/05 00:05:13;;;;;;;0.80;0.80;;;;;;;2.85;58.54;102019.59;671976;29;92398;-71
2022/03/05 00:05:34;;;;;;;0.82;0.82;;;;;;;2.87;58.56;102023.91;675293;29;22391;-71
2022/03/05 00:05:56;;;;;;;1.17;1.17;;;;;;;2.83;58.33;102016.19;675184;29;21520;-71
2022/03/05 00:06:17;;;;;;;1.10;1.10;;;;;;;2.85;58.35;102023.16;672667;29;45308;-71
2022/03/05 00:06:40;;;;;;;1.00;1.00;;;;;;;2.80;58.45;102019.88;669691;29;89385;-71
2022/03/05 00:07:01;;;;;;;1.00;1.00;;;;;;;2.82;58.45;102025.13;671743;29;23724;-72
2022/03/05 00:07:23;;;;;;;1.02;1.02;;;;;;;2.79;58.52;102020.84;671697;29;46389;-71
2022/03/05 00:07:45;;;;;;;0.80;0.80;;;;;;;2.75;58.57;102016.66;672544;29;46511;-71
2022/03/05 00:08:08;;;;;;;0.80;0.80;;;;;;;2.74;58.60;102019.41;671747;29;22086;-71
2022/03/05 00:08:30;;;;;;;1.00;1.00;;;;;;;2.72;58.72;102019.50;669989;29;92300;-71
2022/03/05 00:08:52;;;;;;;1.10;1.10;;;;;;;2.70;58.93;102013.41;670907;29;22394;-71
2022/03/05 00:09:13;;;;;;;1.02;1.02;;;;;;;2.69;59.08;102017.03;670718;29;45026;-71
2022/03/05 00:09:34;;;;;;;0.90;0.90;;;;;;;2.69;59.08;102014.34;672715;29;22211;-70
2022/03/05 00:09:56;;;;;;;1.00;1.00;;;;;;;2.69;59.22;102011.69;672747;29;21518;-71
2022/03/05 00:10:19;;;;;;;0.73;0.73;;;;;;;2.70;59.08;102014.25;672057;29;69488;-71
2022/03/05 00:10:40;;;;;;;0.70;0.70;;;;;;;2.71;59.09;102020.44;674042;29;46365;-71
2022/03/05 00:11:02;;;;;;;0.90;0.90;;;;;;;2.69;59.11;102019.69;674709;29;22375;-71
2022/03/05 00:11:23;;;;;;;1.20;1.20;;;;;;;2.69;59.13;102014.34;673838;29;43767;-71
2022/03/05 00:11:46;;;;;;;1.00;1.00;;;;;;;2.72;59.11;102019.50;674522;29;22406;-71
2022/03/05 00:12:08;;;;;;;1.00;1.00;;;;;;;2.71;59.04;102020.44;672157;29;67401;-71
2022/03/05 00:12:30;;;;;;;1.00;1.00;;;;;;;2.70;58.97;102011.59;672272;29;46307;-71
2022/03/05 00:12:51;;;;;;;1.00;1.00;;;;;;;2.68;59.13;102020.63;671443;29;44386;-71
2022/03/05 00:13:13;;;;;;;0.95;0.95;;;;;;;2.65;59.03;102007.47;671659;29;22373;-71
2022/03/05 00:13:36;;;;;;;1.02;1.02;;;;;;;2.69;59.07;102014.34;671302;29;69170;-71
2022/03/05 00:13:57;;;;;;;1.10;1.10;;;;;;;2.70;58.96;102016.94;671223;29;46414;-71
2022/03/05 00:14:18;;;;;;;1.20;1.20;;;;;;;2.66;58.97;102014.53;671276;29;22377;-71
2022/03/05 00:14:39;;;;;;;1.10;1.10;;;;;;;2.65;59.01;102012.81;673154;29;22348;-71
2022/03/05 00:15:01;;;;;;;1.00;1.00;;;;;;;2.68;58.91;102025.97;672833;29;22254;-71
2022/03/05 00:15:24;;;;;;;0.90;0.90;;;;;;;2.65;58.93;102013.69;671758;29;46300;-71
2022/03/05 00:15:46;;;;;;;1.10;1.10;;;;;;;2.64;59.05;102019.13;670974;29;70143;-71
2022/03/05 00:16:08;;;;;;;1.20;1.20;;;;;;;2.62;59.05;102021.03;671813;29;44325;-71
2022/03/05 00:16:29;;;;;;;1.20;1.20;;;;;;;2.59;59.13;102019.41;670441;29;47358;-72
2022/03/05 00:16:50;;;;;;;1.00;1.00;;;;;;;2.58;59.21;102020.34;672280;29;22403;-71
2022/03/05 00:17:11;;;;;;;0.90;0.90;;;;;;;2.56;59.27;102010.75;672205;29;21060;-71
2022/03/05 00:17:33;;;;;;;0.90;0.90;;;;;;;2.55;59.34;102019.69;672102;29;23581;-71
2022/03/05 00:17:56;;;;;;;0.90;0.90;;;;;;;2.53;59.31;102019.78;666039;29;46432;-70
2022/03/05 00:18:17;;;;;;;0.90;0.90;;;;;;;2.54;59.38;102021.50;666851;29;69460;-71
2022/03/05 00:18:38;;;;;;;1.10;1.10;;;;;;;2.53;59.45;102017.97;667161;29;20887;-71
2022/03/05 00:19:00;;;;;;;1.10;1.10;;;;;;;2.56;59.44;102016.94;667546;29;23471;-71
2022/03/05 00:19:21;;;;;;;1.20;1.20;;;;;;;2.57;59.51;102020.44;669203;29;44390;-71
2022/03/05 00:19:42;;;;;;;1.13;1.13;;;;;;;2.55;59.32;102014.34;669079;29;22395;-71
2022/03/05 00:20:05;;;;;;;1.00;1.00;;;;;;;2.56;59.23;102016.06;673218;29;22345;-71
2022/03/05 00:20:27;;;;;;;0.98;0.98;;;;;;;2.53;59.08;102014.44;670560;29;69474;-71
2022/03/05 00:20:50;;;;;;;0.80;0.80;;;;;;;2.49;59.23;102011.13;671482;29;46341;-71
2022/03/05 00:21:12;;;;;;;1.00;1.00;;;;;;;2.50;59.14;102011.97;672671;29;90399;-71
2022/03/05 00:21:34;;;;;;;1.20;1.20;;;;;;;2.45;59.26;102012.25;674382;29;22328;-71
2022/03/05 00:21:57;;;;;;;1.10;1.10;;;;;;;2.47;59.43;102017.47;671452;29;69438;-71
2022/03/05 00:22:18;;;;;;;1.10;1.10;;;;;;;2.46;59.54;102013.09;673148;29;45282;-71
2022/03/05 00:22:39;;;;;;;0.90;0.90;;;;;;;2.46;59.63;102011.31;672928;29;23447;-71
2022/03/05 00:23:03;;;;;;;0.90;0.90;;;;;;;2.47;59.69;102012.16;672189;29;22412;-71
2022/03/05 00:23:25;;;;;;;0.90;0.90;;;;;;;2.47;59.73;102010.31;669943;29;113729;-71
2022/03/05 00:23:46;;;;;;;1.05;1.05;;;;;;;2.47;59.66;102015.66;668400;29;69586;-71
2022/03/05 00:24:07;;;;;;;1.20;1.20;;;;;;;2.49;59.63;102012.91;670789;29;21703;-71
2022/03/05 00:24:29;;;;;;;1.10;1.10;;;;;;;2.50;59.62;102012.81;673078;29;22379;-71
2022/03/05 00:24:51;;;;;;;1.00;1.00;;;;;;;2.50;59.58;102015.47;671571;29;44990;-71
2022/03/05 00:25:12;;;;;;;1.08;1.08;;;;;;;2.52;59.62;102015.38;672030;29;22444;-71
2022/03/05 00:25:33;;;;;;;1.02;1.02;;;;;;;2.51;59.56;102009.19;672506;29;22397;-71
2022/03/05 00:25:56;;;;;;;0.90;0.90;;;;;;;2.52;59.45;102018.06;675511;29;21675;-71
2022/03/05 00:26:17;;;;;;;1.10;1.10;;;;;;;2.53;59.39;102012.63;673231;29;69571;-71
2022/03/05 00:26:38;;;;;;;1.20;1.20;;;;;;;2.50;59.42;102007.47;674819;29;21132;-70
2022/03/05 00:27:00;;;;;;;1.17;1.17;;;;;;;2.51;59.38;102014.53;672578;29;21482;-71
2022/03/05 00:27:23;;;;;;;1.10;1.10;;;;;;;2.55;59.31;102012.53;671069;29;69559;-71
2022/03/05 00:27:45;;;;;;;1.10;1.10;;;;;;;2.55;59.25;102017.88;670772;29;68364;-71
2022/03/05 00:28:08;;;;;;;1.10;1.10;;;;;;;2.52;59.28;102007.38;671123;29;69301;-71
2022/03/05 00:28:30;;;;;;;1.00;1.00;;;;;;;2.54;59.13;102010.84;671257;29;22414;-71
2022/03/05 00:28:51;;;;;;;0.90;0.90;;;;;;;2.53;59.01;102011.78;669548;29;45244;-71
2022/03/05 00:29:12;;;;;;;1.10;1.10;;;;;;;2.57;59.12;102015.09;672401;29;22401;-71
2022/03/05 00:29:34;;;;;;;1.20;1.20;;;;;;;2.58;59.07;102011.50;671394;29;45253;-71
2022/03/05 00:29:55;;;;;;;1.20;1.20;;;;;;;2.60;58.97;102015.81;671647;29;22550;-72
2022/03/05 00:30:17;;;;;;;1.10;1.10;;;;;;;2.62;58.91;102015.72;675138;29;22397;-71
2022/03/05 00:30:41;;;;;;;1.00;1.00;;;;;;;2.62;59.04;102005.03;674438;29;46357;-71
2022/03/05 00:31:02;;;;;;;1.00;1.00;;;;;;;2.62;58.96;102007.69;672688;29;92341;-71
2022/03/05 00:31:23;;;;;;;0.85;0.85;;;;;;;2.65;58.87;102008.38;675835;29;4859;-71
2022/03/05 00:31:45;;;;;;;0.98;0.98;;;;;;;2.66;58.89;102014.53;675762;29;13838;-71
2022/03/05 00:32:07;;;;;;;1.00;1.00;;;;;;;2.66;58.89;102009.22;670343;29;69314;-71
2022/03/05 00:32:28;;;;;;;1.10;1.10;;;;;;;2.68;58.81;102012.63;673039;29;22410;-71
2022/03/05 00:32:50;;;;;;;1.10;1.10;;;;;;;2.68;58.90;102015.31;673524;29;935;-71
2022/03/05 00:33:12;;;;;;;0.98;0.98;;;;;;;2.69;58.74;102014.34;671857;29;46252;-71
2022/03/05 00:33:34;;;;;;;0.80;0.80;;;;;;;2.70;58.85;102018.75;671020;29;69859;-71
2022/03/05 00:33:56;;;;;;;1.10;1.10;;;;;;;2.71;58.69;102017.78;672463;29;22393;-71
2022/03/05 00:34:17;;;;;;;1.10;1.10;;;;;;;2.68;58.76;102015.31;674929;29;1564;-70
2022/03/05 00:34:39;;;;;;;1.00;1.00;;;;;;;2.70;58.71;102016.09;675090;29;10865;-71
2022/03/05 00:35:01;;;;;;;1.05;1.05;;;;;;;2.68;58.63;102007.28;673457;29;44545;-71
2022/03/05 00:35:22;;;;;;;1.00;1.00;;;;;;;2.68;58.64;102012.63;675334;29;1677;-71
2022/03/05 00:35:44;;;;;;;0.90;0.90;;;;;;;2.67;58.66;102016.28;668577;29;48741;-71
2022/03/05 00:36:06;;;;;;;0.90;0.90;;;;;;;2.63;58.66;102020.06;669770;29;22422;-71
2022/03/05 00:36:27;;;;;;;1.10;1.10;;;;;;;2.63;58.67;102018.28;668899;29;45425;-71
2022/03/05 00:36:48;;;;;;;1.20;1.20;;;;;;;2.59;58.71;102010.56;669824;29;23552;-70
2022/03/05 00:37:11;;;;;;;0.95;0.95;;;;;;;2.57;58.75;102007.97;669553;29;22499;-71
2022/03/05 00:37:34;;;;;;;1.00;1.00;;;;;;;2.55;58.80;102011.69;671655;29;13572;-71
2022/03/05 00:37:55;;;;;;;1.00;1.00;;;;;;;2.55;58.87;102011.69;674294;29;44368;-71
2022/03/05 00:38:16;;;;;;;1.10;1.10;;;;;;;2.51;58.78;102011.88;675194;29;23489;-71
2022/03/05 00:38:38;;;;;;;1.10;1.10;;;;;;;2.53;58.93;102014.44;674189;29;44390;-71
2022/03/05 00:38:59;;;;;;;1.10;1.10;;;;;;;2.52;58.83;102010.94;674043;29;46619;-71
2022/03/05 00:39:20;;;;;;;1.10;1.10;;;;;;;2.49;59.10;102004.91;671808;29;23255;-71
2022/03/05 00:39:42;;;;;;;1.05;1.05;;;;;;;2.53;59.01;102015.28;670887;29;22409;-71
2022/03/05 00:40:05;;;;;;;1.00;1.00;;;;;;;2.53;59.09;102009.13;671516;29;23491;-71
2022/03/05 00:40:27;;;;;;;0.80;0.80;;;;;;;2.55;59.05;102011.69;670430;29;69440;-71
2022/03/05 00:40:48;;;;;;;0.80;0.80;;;;;;;2.55;58.96;102017.88;671352;29;44433;-71
2022/03/05 00:41:09;;;;;;;1.10;1.10;;;;;;;2.55;59.00;102009.88;673172;29;21722;-71
2022/03/05 00:41:31;;;;;;;1.20;1.20;;;;;;;2.55;58.93;102017.03;674279;29;22382;-71
2022/03/05 00:41:52;;;;;;;1.20;1.20;;;;;;;2.49;59.03;102002.25;673700;29;45297;-71
2022/03/05 00:42:14;;;;;;;1.27;1.27;;;;;;;2.51;58.96;102019.03;674616;29;23828;-71
2022/03/05 00:42:35;;;;;;;1.10;1.10;;;;;;;2.45;59.06;102001.56;673829;29;45200;-71
2022/03/05 00:42:57;;;;;;;0.90;0.90;;;;;;;2.46;59.11;102016.63;674376;29;46415;-70
2022/03/05 00:43:18;;;;;;;1.00;1.00;;;;;;;2.45;59.22;102020.25;673832;29;44173;-71
2022/03/05 00:43:40;;;;;;;1.10;1.10;;;;;;;2.44;59.20;102018.50;675209;29;22377;-71
2022/03/05 00:44:02;;;;;;;1.20;1.20;;;;;;;2.44;59.34;102015.84;675165;29;46174;-71
2022/03/05 00:44:24;;;;;;;1.20;1.20;;;;;;;2.45;59.41;102019.41;675239;29;22388;-71
2022/03/05 00:44:45;;;;;;;1.08;1.08;;;;;;;2.43;59.26;102023.94;673271;29;46319;-71
2022/03/05 00:45:07;;;;;;;1.20;1.20;;;;;;;2.44;59.41;102015.00;674958;29;22219;-71
2022/03/05 00:45:29;;;;;;;1.05;1.05;;;;;;;2.44;59.37;102015.84;674132;29;46793;-71
2022/03/05 00:45:50;;;;;;;1.00;1.00;;;;;;;2.46;59.39;102013.09;674473;29;45294;-71
2022/03/05 00:46:11;;;;;;;1.20;1.20;;;;;;;2.49;59.35;102012.91;674644;29;21537;-71
2022/03/05 00:46:32;;;;;;;1.20;1.20;;;;;;;2.48;59.33;102017.38;674095;29;21514;-72
2022/03/05 00:46:53;;;;;;;1.20;1.20;;;;;;;2.49;59.43;102012.91;675043;29;22417;-70
2022/03/05 00:47:15;;;;;;;1.23;1.23;;;;;;;2.50;59.28;102012.81;675066;29;23498;-71
2022/03/05 00:47:37;;;;;;;1.10;1.10;;;;;;;2.50;59.20;102012.81;674158;29;45272;-71
2022/03/05 00:47:58;;;;;;;0.88;0.88;;;;;;;2.50;59.28;102014.63;673969;29;44395;-71
2022/03/05 00:48:20;;;;;;;1.00;1.00;;;;;;;2.49;59.15;102013.78;674812;29;22461;-71
2022/03/05 00:48:41;;;;;;;1.20;1.20;;;;;;;2.48;59.27;102011.22;673669;29;45223;-71
2022/03/05 00:49:03;;;;;;;1.48;1.48;;;;;;;2.48;59.21;102013.88;673080;29;23410;-71
2022/03/05 00:49:24;;;;;;;1.45;1.45;;;;;;;2.46;59.31;102011.31;671592;29;43887;-70
2022/03/05 00:49:46;;;;;;;1.50;1.50;;;;;;;2.49;59.36;102013.78;669132;29;21194;-71
2022/03/05 00:50:08;;;;;;;1.50;1.50;;;;;;;2.49;59.32;102019.13;668296;29;45933;-71
2022/03/05 00:50:30;;;;;;;1.30;1.30;;;;;;;2.51;59.28;102014.53;669149;29;46322;-70
2022/03/05 00:50:52;;;;;;;1.20;1.20;;;;;;;2.50;59.14;102018.16;669298;29;46626;-71
2022/03/05 00:51:13;;;;;;;1.10;1.10;;;;;;;2.50;59.08;102011.97;671183;29;67616;-71
2022/03/05 00:51:35;;;;;;;1.40;1.40;;;;;;;2.50;59.05;102017.28;672428;29;22417;-71
2022/03/05 00:51:56;;;;;;;1.55;1.55;;;;;;;2.47;58.93;102006.81;675313;29;22383;-71
2022/03/05 00:52:20;;;;;;;1.30;1.30;;;;;;;2.48;59.10;102016.53;673811;29;69442;-71
2022/03/05 00:52:41;;;;;;;1.40;1.40;;;;;;;2.44;59.06;102013.19;671072;29;43950;-71
2022/03/05 00:53:02;;;;;;;1.40;1.40;;;;;;;2.43;59.13;102011.50;672192;29;23466;-71
2022/03/05 00:53:24;;;;;;;1.05;1.05;;;;;;;2.43;59.24;102015.94;672331;29;21508;-70
2022/03/05 00:53:45;;;;;;;1.08;1.08;;;;;;;2.42;59.35;102014.25;671134;29;46349;-71
2022/03/05 00:54:08;;;;;;;1.60;1.60;;;;;;;2.41;59.37;102020.50;670646;29;46335;-71
2022/03/05 00:54:29;;;;;;;1.55;1.55;;;;;;;2.39;59.44;102009.09;672263;29;45260;-71
2022/03/05 00:54:52;;;;;;;1.38;1.38;;;;;;;2.38;59.37;102010.03;671172;29;46084;-71
2022/03/05 00:55:13;;;;;;;1.50;1.50;;;;;;;2.36;59.45;102018.13;671863;29;45308;-71
2022/03/05 00:55:34;;;;;;;1.23;1.23;;;;;;;2.35;59.57;102011.06;672298;29;23454;-70
2022/03/05 00:56:06;;;;;;;1.17;1.17;;;;;;;2.34;59.56;102017.38;671038;29;58222;-71
2022/03/05 00:56:27;;;;;;;1.30;1.30;;;;;;;2.33;59.74;102013.81;671071;29;45203;-71
2022/03/05 00:56:48;;;;;;;1.65;1.65;;;;;;;2.33;59.73;102024.50;674308;29;23158;-71
2022/03/05 00:57:09;;;;;;;1.50;1.50;;;;;;;2.32;59.71;102022.78;674941;29;23734;-71
2022/03/05 00:57:33;;;;;;;1.30;1.30;;;;;;;2.33;59.79;102013.81;675575;29;21530;-71
2022/03/05 00:57:54;;;;;;;1.40;1.40;;;;;;;2.34;59.80;102009.38;673010;29;92829;-71
2022/03/05 00:58:15;;;;;;;1.30;1.30;;;;;;;2.32;59.69;102011.25;674920;29;22357;-71
2022/03/05 00:58:37;;;;;;;1.10;1.10;;;;;;;2.33;59.74;102016.50;674748;29;22403;-71
2022/03/05 00:58:58;;;;;;;1.00;1.00;;;;;;;2.33;59.84;102026.31;674433;29;46399;-71
2022/03/05 00:59:20;;;;;;;1.20;1.20;;;;;;;2.33;59.94;102015.66;674587;29;45677;-71
2022/03/05 00:59:41;;;;;;;1.40;1.40;;;;;;;2.34;59.92;102022.69;674268;29;22193;-71
2022/03/05 01:00:04;;;;;;;1.55;1.52;;;;;;;2.34;59.82;102018.22;674410;29;23391;-71
2022/03/05 01:00:26;;;;;;;1.20;1.20;;;;;;;2.36;59.72;102015.47;672979;29;92408;-71
2022/03/05 01:00:47;;;;;;;1.10;1.10;;;;;;;2.36;59.75;102027.94;674413;29;21374;-71
2022/03/05 01:01:09;;;;;;;1.63;1.63;;;;;;;2.35;59.64;102027.06;674027;29;46225;-71
2022/03/05 01:01:30;;;;;;;1.50;1.50;;;;;;;2.33;59.63;102020.97;673525;29;23546;-71
2022/03/05 01:01:51;;;;;;;1.40;1.40;;;;;;;2.31;59.62;102026.41;674595;29;46410;-71
2022/03/05 01:02:13;;;;;;;1.40;1.40;;;;;;;2.32;59.69;102021.91;675871;29;22398;-71
2022/03/05 01:02:35;;;;;;;1.30;1.30;;;;;;;2.29;59.77;102024.78;674616;29;23458;-71
2022/03/05 01:02:56;;;;;;;1.20;1.20;;;;;;;2.29;59.74;102019.47;672118;29;46345;-71
2022/03/05 01:03:17;;;;;;;1.30;1.30;;;;;;;2.28;59.86;102021.25;675347;29;21510;-71
2022/03/05 01:03:38;;;;;;;1.30;1.30;;;;;;;2.28;59.86;102025.72;674477;29;22403;-71
2022/03/05 01:04:00;;;;;;;1.52;1.52;;;;;;;2.29;59.97;102027.47;674792;29;23592;-71
2022/03/05 01:04:21;;;;;;;1.58;1.58;;;;;;;2.27;59.95;102026.66;671970;29;46067;-70
2022/03/05 01:04:43;;;;;;;1.30;1.30;;;;;;;2.29;59.93;102025.66;672932;29;22544;-71
2022/03/05 01:05:04;;;;;;;1.33;1.33;;;;;;;2.28;60.01;102015.91;671403;29;46388;-70
2022/03/05 01:05:26;;;;;;;1.20;1.20;;;;;;;2.31;59.99;102025.56;672939;29;21666;-71
2022/03/05 01:05:48;;;;;;;1.13;1.13;;;;;;;2.29;60.05;102016.81;670681;29;69448;-71
2022/03/05 01:06:09;;;;;;;1.02;1.02;;;;;;;2.32;59.97;102022.78;672265;29;22382;-71
2022/03/05 01:06:31;;;;;;;1.35;1.35;;;;;;;2.32;59.83;102021.91;674361;29;21553;-72
2022/03/05 01:06:52;;;;;;;1.20;1.20;;;;;;;2.31;60.07;102023.72;674201;29;46291;-71
2022/03/05 01:07:14;;;;;;;1.10;1.10;;;;;;;2.33;60.03;102021.81;673315;29;21594;-71
2022/03/05 01:07:35;;;;;;;1.20;1.20;;;;;;;2.36;59.86;102017.28;674469;29;46365;-71
2022/03/05 01:07:56;;;;;;;1.35;1.35;;;;;;;2.36;59.97;102022.63;675197;29;22411;-70
2022/03/05 01:08:19;;;;;;;1.50;1.50;;;;;;;2.37;59.89;102025.19;674011;29;46268;-71
2022/03/05 01:08:40;;;;;;;1.40;1.40;;;;;;;2.38;59.81;102020.69;673572;29;46360;-71
2022/03/05 01:09:03;;;;;;;1.40;1.40;;;;;;;2.39;59.79;102017.09;674825;29;21549;-71
2022/03/05 01:09:24;;;;;;;1.13;1.13;;;;;;;2.40;59.77;102010.78;673944;29;69731;-71
2022/03/05 01:09:46;;;;;;;1.20;1.20;;;;;;;2.42;59.76;102022.25;674440;29;22356;-71
2022/03/05 01:10:08;;;;;;;1.05;1.05;;;;;;;2.42;59.73;102023.09;674100;29;46286;-71
2022/03/05 01:10:29;;;;;;;1.13;1.13;;;;;;;2.43;59.66;102019.50;673282;29;44436;-71
2022/03/05 01:10:50;;;;;;;1.52;1.52;;;;;;;2.43;59.58;102011.50;674809;29;23767;-71
2022/03/05 01:11:15;;;;;;;1.40;1.40;;;;;;;2.43;59.60;102013.28;674899;29;21555;-72
2022/03/05 01:11:37;;;;;;;1.40;1.40;;;;;;;2.44;59.61;102018.50;670826;29;138191;-71
2022/03/05 01:11:58;;;;;;;1.20;1.20;;;;;;;2.44;59.58;102018.50;675383;29;22460;-71
2022/03/05 01:12:19;;;;;;;1.20;1.20;;;;;;;2.43;59.54;102018.59;674750;29;22191;-71
2022/03/05 01:12:43;;;;;;;1.00;1.00;;;;;;;2.42;59.49;102007.09;676204;29;967;-71
2022/03/05 01:13:04;;;;;;;1.30;1.30;;;;;;;2.41;59.44;102023.19;671563;29;85131;-71
2022/03/05 01:13:25;;;;;;;1.60;1.60;;;;;;;2.43;59.52;102018.59;674563;29;1397;-71
2022/03/05 01:13:46;;;;;;;1.33;1.33;;;;;;;2.43;59.58;102024.81;674654;29;22354;-71
2022/03/05 01:14:08;;;;;;;1.38;1.38;;;;;;;2.42;59.53;102016.91;674521;29;44442;-71
2022/03/05 01:14:30;;;;;;;1.30;1.30;;;;;;;2.43;59.47;102015.94;675145;29;22362;-71
2022/03/05 01:14:51;;;;;;;1.33;1.33;;;;;;;2.39;59.47;102009.09;674418;29;46393;-71
2022/03/05 01:15:12;;;;;;;1.30;1.30;;;;;;;2.43;59.49;102019.50;675860;29;22413;-71
2022/03/05 01:15:34;;;;;;;1.20;1.20;;;;;;;2.44;59.47;102020.34;675133;29;22628;-71
2022/03/05 01:15:55;;;;;;;1.58;1.58;;;;;;;2.41;59.41;102010.69;674681;29;46354;-71
2022/03/05 01:16:16;;;;;;;1.58;1.58;;;;;;;2.41;59.48;102024.03;674562;29;22405;-71
2022/03/05 01:16:37;;;;;;;1.50;1.50;;;;;;;2.40;59.49;102018.78;674111;29;21734;-70
2022/03/05 01:16:59;;;;;;;1.40;1.40;;;;;;;2.39;59.53;102017.09;675255;29;8394;-70
2022/03/05 01:17:20;;;;;;;1.40;1.40;;;;;;;2.39;59.51;102023.28;675594;29;12311;-71
2022/03/05 01:17:42;;;;;;;1.20;1.20;;;;;;;2.38;59.61;102016.22;675102;29;23602;-71
2022/03/05 01:18:04;;;;;;;1.17;1.17;;;;;;;2.39;59.69;102025.94;674546;29;45358;-71
2022/03/05 01:18:25;;;;;;;1.20;1.20;;;;;;;2.39;59.59;102020.59;674909;29;3243;-71
2022/03/05 01:18:46;;;;;;;1.75;1.75;;;;;;;2.39;59.69;102012.59;674249;29;22471;-70
2022/03/05 01:19:07;;;;;;;1.60;1.60;;;;;;;2.41;59.50;102025.84;674496;29;1331;-72
2022/03/05 01:19:29;;;;;;;1.40;1.40;;;;;;;2.42;59.73;102023.09;674160;29;22337;-70
2022/03/05 01:19:51;;;;;;;1.73;1.70;;;;;;;2.40;59.62;102018.78;672818;29;67517;-71
2022/03/05 01:20:12;;;;;;;1.30;1.30;;;;;;;2.37;59.63;102011.84;675526;29;23470;-71
2022/03/05 01:20:33;;;;;;;1.20;1.20;;;;;;;2.40;59.59;102018.78;672467;29;23407;-71
2022/03/05 01:20:55;;;;;;;1.30;1.30;;;;;;;2.38;59.69;102021.56;671957;29;22401;-71
2022/03/05 01:21:16;;;;;;;1.70;1.70;;;;;;;2.38;59.60;102023.38;671684;29;46624;-71
2022/03/05 01:21:37;;;;;;;1.77;1.77;;;;;;;2.36;59.65;102015.47;672009;29;23285;-71
2022/03/05 01:21:58;;;;;;;1.42;1.42;;;;;;;2.32;59.62;102021.91;672110;29;22341;-71
2022/03/05 01:22:20;;;;;;;1.40;1.40;;;;;;;2.33;59.73;102012.97;673325;29;21183;-71
2022/03/05 01:22:41;;;;;;;1.20;1.20;;;;;;;2.36;59.81;102027.94;674795;29;46661;-71
2022/03/05 01:23:02;;;;;;;1.20;1.20;;;;;;;2.33;59.70;102019.16;674200;29;45019;-70
2022/03/05 01:23:24;;;;;;;1.02;1.02;;;;;;;2.34;59.77;102015.56;675322;29;22165;-70
2022/03/05 01:23:45;;;;;;;1.02;1.02;;;;;;;2.34;59.72;102028.88;674594;29;23414;-70
2022/03/05 01:24:07;;;;;;;1.30;1.30;;;;;;;2.33;59.83;102012.97;674906;29;23447;-70
2022/03/05 01:24:28;;;;;;;1.20;1.20;;;;;;;2.32;59.89;102021.91;673805;29;46327;-72
2022/03/05 01:24:50;;;;;;;1.20;1.20;;;;;;;2.34;59.80;102022.69;673920;29;44486;-72
2022/03/05 01:25:12;;;;;;;1.20;1.20;;;;;;;2.33;59.81;102016.50;676145;29;23455;-70
2022/03/05 01:25:33;;;;;;;1.30;1.30;;;;;;;2.33;59.86;102020.97;673820;29;44415;-69
2022/03/05 01:25:54;;;;;;;1.50;1.50;;;;;;;2.33;59.89;102018.31;675328;29;23457;-70
2022/03/05 01:26:15;;;;;;;1.13;1.13;;;;;;;2.33;59.81;102026.31;673931;29;22430;-69
2022/03/05 01:26:37;;;;;;;1.20;1.20;;;;;;;2.31;59.73;102018.41;673672;29;24259;-69
2022/03/05 01:26:59;;;;;;;1.10;1.10;;;;;;;2.30;59.84;102022.03;674458;29;44564;-71
2022/03/05 01:27:22;;;;;;;1.08;1.08;;;;;;;2.29;59.82;102028.31;674135;29;46358;-72
2022/03/05 01:27:44;;;;;;;1.52;1.52;;;;;;;2.26;60.15;102016.97;671965;29;67475;-71
2022/03/05 01:28:06;;;;;;;1.60;1.60;;;;;;;2.26;59.99;102017.81;674171;29;46443;-71
2022/03/05 01:28:27;;;;;;;1.42;1.42;;;;;;;2.26;59.95;102014.31;673495;29;44399;-71
2022/03/05 01:28:48;;;;;;;1.40;1.40;;;;;;;2.28;59.92;102021.25;674935;29;22382;-70
2022/03/05 01:29:09;;;;;;;1.33;1.33;;;;;;;2.28;59.96;102015.06;673740;29;23486;-71
2022/03/05 01:29:32;;;;;;;1.13;1.13;;;;;;;2.28;59.92;102023.91;670470;29;21492;-71
2022/03/05 01:29:54;;;;;;;1.35;1.35;;;;;;;2.25;60.04;102012.59;667696;29;90147;-70
2022/03/05 01:30:15;;;;;;;1.50;1.50;;;;;;;2.27;60.02;102013.34;669990;29;22433;-71
2022/03/05 01:30:37;;;;;;;1.48;1.48;;;;;;;2.30;60.09;102022.03;671977;29;46025;-68
2022/03/05 01:30:59;;;;;;;1.50;1.50;;;;;;;2.31;60.01;102009.56;671953;29;22412;-71
2022/03/05 01:31:20;;;;;;;1.23;1.23;;;;;;;2.31;59.98;102021.06;671237;29;46404;-71
2022/03/05 01:31:41;;;;;;;1.15;1.15;;;;;;;2.31;59.91;102013.06;672398;29;22181;-71
2022/03/05 01:32:03;;;;;;;1.50;1.50;;;;;;;2.33;59.86;102010.31;672523;29;22392;-71
2022/03/05 01:32:24;;;;;;;1.40;1.40;;;;;;;2.33;59.87;102018.31;672023;29;46534;-71
2022/03/05 01:32:46;;;;;;;1.30;1.30;;;;;;;2.31;59.80;102012.22;674599;29;22413;-71
2022/03/05 01:33:08;;;;;;;1.30;1.30;;;;;;;2.29;59.78;102011.47;674196;29;69456;-71
2022/03/05 01:33:29;;;;;;;1.40;1.40;;;;;;;2.28;59.85;102021.25;676021;29;21530;-71
2022/03/05 01:33:50;;;;;;;1.30;1.30;;;;;;;2.25;59.93;102013.44;675145;29;23446;-71
2022/03/05 01:34:12;;;;;;;1.10;1.10;;;;;;;2.23;60.28;102012.69;674098;29;22656;-71
2022/03/05 01:34:33;;;;;;;1.30;1.30;;;;;;;2.23;60.17;102014.50;671308;29;44406;-71
2022/03/05 01:34:54;;;;;;;1.30;1.30;;;;;;;2.22;60.13;102013.63;672847;29;22437;-71
2022/03/05 01:35:15;;;;;;;1.10;1.10;;;;;;;2.21;60.02;102014.59;673411;29;22549;-71
2022/03/05 01:35:36;;;;;;;0.95;0.95;;;;;;;2.20;60.09;102020.84;673026;29;21390;-71
2022/03/05 01:35:58;;;;;;;1.20;1.20;;;;;;;2.19;60.28;102008.47;671641;29;22474;-72
2022/03/05 01:36:20;;;;;;;1.30;1.30;;;;;;;2.19;60.33;102008.47;671187;29;46229;-72
2022/03/05 01:36:41;;;;;;;1.20;1.20;;;;;;;2.18;60.12;102014.78;673109;29;44428;-71
2022/03/05 01:37:02;;;;;;;1.13;1.13;;;;;;;2.20;60.31;102014.69;674942;29;22408;-71
2022/03/05 01:37:24;;;;;;;1.20;1.20;;;;;;;2.17;60.23;102013.88;674736;29;21360;-71
2022/03/05 01:37:46;;;;;;;1.50;1.50;;;;;;;2.16;60.23;102012.19;673005;29;69400;-71
2022/03/05 01:38:07;;;;;;;1.40;1.40;;;;;;;2.19;60.32;102020.94;675270;29;21547;-72
2022/03/05 01:38:28;;;;;;;1.40;1.40;;;;;;;2.18;60.45;102009.44;673760;29;21541;-71
2022/03/05 01:38:50;;;;;;;1.33;1.33;;;;;;;2.18;60.43;102012.09;674354;29;22398;-71
2022/03/05 01:39:12;;;;;;;1.10;1.10;;;;;;;2.20;60.32;102012.00;674428;29;46085;-72
2022/03/05 01:39:34;;;;;;;1.20;1.20;;;;;;;2.17;60.25;102013.88;673850;29;45322;-72
2022/03/05 01:39:55;;;;;;;1.25;1.25;;;;;;;2.17;60.22;102008.56;674347;29;46327;-71
2022/03/05 01:40:16;;;;;;;1.30;1.30;;;;;;;2.15;60.30;102010.47;675161;29;21444;-69
2022/03/05 01:40:38;;;;;;;1.30;1.30;;;;;;;2.12;60.19;102010.66;674894;29;22464;-71
2022/03/05 01:40:59;;;;;;;1.30;1.30;;;;;;;2.12;60.25;102015.97;673017;29;69517;-69
2022/03/05 01:41:21;;;;;;;1.17;1.17;;;;;;;2.11;60.30;102013.41;672924;29;44117;-69
2022/03/05 01:41:44;;;;;;;1.10;1.10;;;;;;;2.11;60.49;102014.25;674711;29;22240;-72
2022/03/05 01:42:06;;;;;;;1.52;1.52;;;;;;;2.11;60.57;102010.75;673524;29;69439;-69
2022/03/05 01:42:27;;;;;;;1.42;1.42;;;;;;;2.12;60.50;102004.47;674958;29;44388;-69
2022/03/05 01:42:50;;;;;;;1.20;1.20;;;;;;;2.12;60.57;102009.81;674554;29;22381;-71
2022/03/05 01:43:11;;;;;;;1.30;1.30;;;;;;;2.12;60.51;102010.66;673762;29;67512;-72